Time;durP1;ratioP1;P1;durP2;ratioP2;P2;SDS_P1;SDS_P2;PMS_P1;PMS_P2;Temp;Humidity;BMP_temperature;BMP_pressure;BME280_temperature;BME280_humidity;BME280_pressure;Samples;Min_cycle;Max_cycle;Signal;HPM_P1;HPM_P2
2023/05/14 00:02:05;;;;;;;0.10;0.10;;;;;;;;;;4885177;29;20032;-81
2023/05/14 00:04:31;;;;;;;0.10;0.10;;;;;;;;;;4868663;29;20043;-80
2023/05/14 00:06:57;;;;;;;0.10;0.10;;;;;;;;;;4880258;29;20103;-80
2023/05/14 00:09:23;;;;;;;0.20;0.20;;;;;;;;;;4890138;29;20488;-80
2023/05/14 00:11:48;;;;;;;0.10;0.10;;;;;;;;;;4887017;29;20055;-80
2023/05/14 00:14:13;;;;;;;0.22;0.22;;;;;;;;;;4888798;29;20017;-80
2023/05/14 00:16:39;;;;;;;0.10;0.10;;;;;;;;;;4880252;29;20039;-81
2023/05/14 00:19:04;;;;;;;0.10;0.10;;;;;;;;;;4890143;29;20020;-80
2023/05/14 00:21:30;;;;;;;0.10;0.10;;;;;;;;;;4897103;29;20017;-80
2023/05/14 00:23:56;;;;;;;0.10;0.10;;;;;;;;;;4892339;29;20039;-80
2023/05/14 00:26:21;;;;;;;0.13;0.13;;;;;;;;;;4884042;29;20041;-80
2023/05/14 00:28:47;;;;;;;0.10;0.10;;;;;;;;;;4881430;29;20035;-79
2023/05/14 00:31:13;;;;;;;0.10;0.10;;;;;;;;;;4887717;29;20029;-81
2023/05/14 00:33:38;;;;;;;0.25;0.25;;;;;;;;;;4883320;29;20032;-81
2023/05/14 00:36:04;;;;;;;0.10;0.10;;;;;;;;;;4879150;29;20123;-80
2023/05/14 00:38:29;;;;;;;0.10;0.10;;;;;;;;;;4889580;29;20057;-78
2023/05/14 00:40:55;;;;;;;0.10;0.10;;;;;;;;;;4888977;29;20057;-79
2023/05/14 00:43:21;;;;;;;1.23;0.52;;;;;;;;;;4900960;29;20065;-80
2023/05/14 00:45:49;;;;;;;0.10;0.10;;;;;;;;;;4884703;29;20076;-81
2023/05/14 00:48:15;;;;;;;0.10;0.10;;;;;;;;;;4887260;29;20033;-80
2023/05/14 00:50:41;;;;;;;0.10;0.10;;;;;;;;;;4875711;29;20044;-78
2023/05/14 00:53:09;;;;;;;0.20;0.20;;;;;;;;;;4911483;29;20049;-81
2023/05/14 00:55:37;;;;;;;0.10;0.10;;;;;;;;;;4881408;29;20033;-81
2023/05/14 00:58:06;;;;;;;0.10;0.10;;;;;;;;;;4891841;29;20024;-79
2023/05/14 01:00:31;;;;;;;0.10;0.10;;;;;;;;;;4897286;29;20025;-78
2023/05/14 01:03:00;;;;;;;0.10;0.10;;;;;;;;;;4886673;29;20080;-79
2023/05/14 01:05:31;;;;;;;0.38;0.38;;;;;;;;;;4895956;29;20025;-80
2023/05/14 01:07:57;;;;;;;0.20;0.20;;;;;;;;;;4898376;29;20020;-80
2023/05/14 01:10:29;;;;;;;0.50;0.50;;;;;;;;;;4890556;29;20032;-80
2023/05/14 01:13:09;;;;;;;;;;;;;;;;;;4883107;29;20032;-80
2023/05/14 01:15:38;;;;;;;0.10;0.10;;;;;;;;;;4882663;29;19915;-80
2023/05/14 01:18:07;;;;;;;0.10;0.10;;;;;;;;;;4882820;29;20025;-80
2023/05/14 01:20:33;;;;;;;0.13;0.13;;;;;;;;;;4890917;29;20523;-80
2023/05/14 01:22:58;;;;;;;0.10;0.10;;;;;;;;;;4883154;29;20063;-80
2023/05/14 01:25:23;;;;;;;0.10;0.10;;;;;;;;;;4894457;29;20025;-80
2023/05/14 01:27:55;;;;;;;0.10;0.10;;;;;;;;;;4891365;29;20495;-80
2023/05/14 01:30:23;;;;;;;0.20;0.20;;;;;;;;;;4891320;29;20016;-80
2023/05/14 01:32:55;;;;;;;0.10;0.10;;;;;;;;;;4886498;29;20534;-80
2023/05/14 01:35:24;;;;;;;0.10;0.10;;;;;;;;;;4892217;29;20024;-81
2023/05/14 01:37:52;;;;;;;0.10;0.10;;;;;;;;;;4902226;29;20168;-80
2023/05/14 01:40:18;;;;;;;0.10;0.10;;;;;;;;;;4893611;29;20040;-81
2023/05/14 01:42:44;;;;;;;0.20;0.20;;;;;;;;;;4879593;29;20037;-80
2023/05/14 01:45:09;;;;;;;0.10;0.10;;;;;;;;;;4869315;29;20035;-80
2023/05/14 01:47:35;;;;;;;0.10;0.10;;;;;;;;;;4884489;29;20120;-80
2023/05/14 01:50:00;;;;;;;0.17;0.17;;;;;;;;;;4895947;29;20021;-79
2023/05/14 01:52:25;;;;;;;0.10;0.10;;;;;;;;;;4889985;29;20452;-79
2023/05/14 01:54:51;;;;;;;0.10;0.10;;;;;;;;;;4883922;29;20788;-80
2023/05/14 01:57:16;;;;;;;0.25;0.25;;;;;;;;;;4884774;29;20029;-80
2023/05/14 01:59:42;;;;;;;0.10;0.10;;;;;;;;;;4893783;29;20053;-80
2023/05/14 02:02:07;;;;;;;0.10;0.10;;;;;;;;;;4899084;29;20044;-80
2023/05/14 02:04:32;;;;;;;0.13;0.13;;;;;;;;;;4887913;29;20056;-79
2023/05/14 02:06:58;;;;;;;0.10;0.10;;;;;;;;;;4882878;29;20033;-80
2023/05/14 02:09:23;;;;;;;0.10;0.10;;;;;;;;;;4883940;29;20124;-81
2023/05/14 02:11:48;;;;;;;0.10;0.10;;;;;;;;;;4901244;29;20084;-80
2023/05/14 02:14:14;;;;;;;0.10;0.10;;;;;;;;;;4892654;29;20107;-81
2023/05/14 02:16:40;;;;;;;0.25;0.25;;;;;;;;;;4865032;29;20025;-83
2023/05/14 02:19:05;;;;;;;0.20;0.20;;;;;;;;;;4883774;29;20092;-82
2023/05/14 02:21:31;;;;;;;0.20;0.20;;;;;;;;;;4870846;29;20029;-82
2023/05/14 02:23:56;;;;;;;0.10;0.10;;;;;;;;;;4890120;29;20025;-81
2023/05/14 02:26:21;;;;;;;0.15;0.15;;;;;;;;;;4893359;29;20499;-80
2023/05/14 02:28:47;;;;;;;0.10;0.10;;;;;;;;;;4892534;29;20036;-81
2023/05/14 02:31:13;;;;;;;0.10;0.10;;;;;;;;;;4887951;29;20025;-80
2023/05/14 02:33:38;;;;;;;0.20;0.20;;;;;;;;;;4875345;29;20064;-80
2023/05/14 02:36:04;;;;;;;0.28;0.28;;;;;;;;;;4891494;29;20016;-80
2023/05/14 02:38:29;;;;;;;0.20;0.20;;;;;;;;;;4890433;29;20080;-80
2023/05/14 02:40:55;;;;;;;0.10;0.10;;;;;;;;;;4884837;29;20028;-80
2023/05/14 02:43:20;;;;;;;0.15;0.15;;;;;;;;;;4870038;29;20025;-81
2023/05/14 02:45:46;;;;;;;0.10;0.10;;;;;;;;;;4888502;29;20066;-81
2023/05/14 02:48:11;;;;;;;0.10;0.10;;;;;;;;;;4892878;29;20032;-81
2023/05/14 02:50:36;;;;;;;0.10;0.10;;;;;;;;;;4893587;29;20067;-80
2023/05/14 02:53:02;;;;;;;0.10;0.10;;;;;;;;;;4883617;29;20031;-80
2023/05/14 02:55:27;;;;;;;0.10;0.10;;;;;;;;;;4883011;29;20072;-80
2023/05/14 02:57:52;;;;;;;0.17;0.17;;;;;;;;;;4892215;29;20032;-80
2023/05/14 03:00:18;;;;;;;0.20;0.20;;;;;;;;;;4886826;29;20436;-79
2023/05/14 03:02:44;;;;;;;0.10;0.10;;;;;;;;;;4892454;29;20044;-80
2023/05/14 03:05:09;;;;;;;0.10;0.10;;;;;;;;;;4863988;29;20028;-80
2023/05/14 03:07:35;;;;;;;0.15;0.15;;;;;;;;;;4881482;29;20465;-79
2023/05/14 03:10:00;;;;;;;0.10;0.10;;;;;;;;;;4892057;29;20044;-80
2023/05/14 03:12:25;;;;;;;0.20;0.20;;;;;;;;;;4884853;29;20037;-80
2023/05/14 03:14:51;;;;;;;0.20;0.20;;;;;;;;;;4888560;29;20047;-80
2023/05/14 03:17:16;;;;;;;0.13;0.13;;;;;;;;;;4872415;29;20036;-79
2023/05/14 03:19:42;;;;;;;0.20;0.20;;;;;;;;;;4886534;29;20028;-80
2023/05/14 03:22:07;;;;;;;0.17;0.17;;;;;;;;;;4888504;29;20036;-80
2023/05/14 03:24:33;;;;;;;0.10;0.10;;;;;;;;;;4889125;29;20052;-79
2023/05/14 03:26:59;;;;;;;0.20;0.20;;;;;;;;;;4891367;29;20029;-80
2023/05/14 03:29:24;;;;;;;0.10;0.10;;;;;;;;;;4884059;29;20043;-79
2023/05/14 03:31:50;;;;;;;0.10;0.10;;;;;;;;;;4882637;29;20060;-80
2023/05/14 03:34:15;;;;;;;0.10;0.10;;;;;;;;;;4890212;29;20017;-80
2023/05/14 03:36:40;;;;;;;0.20;0.20;;;;;;;;;;4890437;29;20036;-80
2023/05/14 03:39:06;;;;;;;0.10;0.10;;;;;;;;;;4891399;29;20472;-80
2023/05/14 03:41:32;;;;;;;0.10;0.10;;;;;;;;;;4890484;29;20119;-80
2023/05/14 03:43:57;;;;;;;0.20;0.20;;;;;;;;;;4891303;29;20048;-79
2023/05/14 03:46:23;;;;;;;0.10;0.10;;;;;;;;;;4883955;29;20036;-80
2023/05/14 03:48:48;;;;;;;0.38;0.38;;;;;;;;;;4890960;29;20092;-79
2023/05/14 03:51:13;;;;;;;0.17;0.17;;;;;;;;;;4871217;29;20056;-80
2023/05/14 03:53:39;;;;;;;0.10;0.10;;;;;;;;;;4895334;29;20425;-80
2023/05/14 03:56:04;;;;;;;0.10;0.10;;;;;;;;;;4881051;29;20025;-80
2023/05/14 03:58:30;;;;;;;0.20;0.20;;;;;;;;;;4900069;29;20032;-79
2023/05/14 04:00:55;;;;;;;0.20;0.20;;;;;;;;;;4881283;29;20417;-79
2023/05/14 04:03:20;;;;;;;0.17;0.17;;;;;;;;;;4883656;29;20656;-80
2023/05/14 04:05:46;;;;;;;0.20;0.20;;;;;;;;;;4887742;29;20036;-79
2023/05/14 04:08:11;;;;;;;0.10;0.10;;;;;;;;;;4898965;29;20043;-79
2023/05/14 04:10:36;;;;;;;0.10;0.10;;;;;;;;;;4893058;29;20032;-79
2023/05/14 04:13:02;;;;;;;0.15;0.15;;;;;;;;;;4892245;29;20039;-80
2023/05/14 04:15:27;;;;;;;0.10;0.10;;;;;;;;;;4885298;29;20033;-80
2023/05/14 04:17:52;;;;;;;0.10;0.10;;;;;;;;;;4891622;29;20031;-79
2023/05/14 04:20:18;;;;;;;0.15;0.15;;;;;;;;;;4885530;29;20489;-79
2023/05/14 04:22:43;;;;;;;0.10;0.10;;;;;;;;;;4871980;29;20033;-80
2023/05/14 04:25:08;;;;;;;0.20;0.20;;;;;;;;;;4882936;29;20047;-80
2023/05/14 04:27:34;;;;;;;0.10;0.10;;;;;;;;;;4895976;29;20028;-80
2023/05/14 04:29:59;;;;;;;0.20;0.20;;;;;;;;;;4884952;29;20027;-79
2023/05/14 04:32:24;;;;;;;0.20;0.20;;;;;;;;;;4896098;29;20031;-79
2023/05/14 04:34:50;;;;;;;0.10;0.10;;;;;;;;;;4871677;29;20033;-79
2023/05/14 04:37:15;;;;;;;0.20;0.20;;;;;;;;;;4891923;29;20115;-81
2023/05/14 04:39:41;;;;;;;0.20;0.20;;;;;;;;;;4883858;29;20668;-81
2023/05/14 04:42:07;;;;;;;0.13;0.13;;;;;;;;;;4886855;29;20556;-81
2023/05/14 04:44:33;;;;;;;0.10;0.10;;;;;;;;;;4869888;29;20043;-81
2023/05/14 04:46:58;;;;;;;0.10;0.10;;;;;;;;;;4885039;29;20160;-79
2023/05/14 04:49:24;;;;;;;0.10;0.10;;;;;;;;;;4897185;29;20094;-80
2023/05/14 04:51:49;;;;;;;0.10;0.10;;;;;;;;;;4869481;29;20119;-80
2023/05/14 04:54:14;;;;;;;0.20;0.20;;;;;;;;;;4868753;29;20091;-80
2023/05/14 04:56:40;;;;;;;0.10;0.10;;;;;;;;;;4881126;29;20430;-80
2023/05/14 04:59:05;;;;;;;0.10;0.10;;;;;;;;;;4895810;29;20061;-80
2023/05/14 05:01:31;;;;;;;0.20;0.20;;;;;;;;;;4887772;29;20035;-79
2023/05/14 05:03:56;;;;;;;0.10;0.10;;;;;;;;;;4895739;29;20035;-79
2023/05/14 05:06:22;;;;;;;0.20;0.20;;;;;;;;;;4884500;29;20107;-81
2023/05/14 05:08:47;;;;;;;0.22;0.22;;;;;;;;;;4903012;29;20036;-78
2023/05/14 05:11:12;;;;;;;0.10;0.10;;;;;;;;;;4905232;29;20135;-78
2023/05/14 05:13:38;;;;;;;0.20;0.20;;;;;;;;;;4901071;29;20025;-78
2023/05/14 05:16:03;;;;;;;0.10;0.10;;;;;;;;;;4866080;29;20116;-79
2023/05/14 05:18:29;;;;;;;0.15;0.15;;;;;;;;;;4900167;29;20086;-80
2023/05/14 05:20:54;;;;;;;0.17;0.17;;;;;;;;;;4866033;29;20059;-80
2023/05/14 05:23:20;;;;;;;0.10;0.10;;;;;;;;;;4886896;29;20036;-80
2023/05/14 05:25:45;;;;;;;0.50;0.50;;;;;;;;;;4886773;29;20084;-80
2023/05/14 05:28:10;;;;;;;0.30;0.30;;;;;;;;;;4889165;29;20053;-80
2023/05/14 05:30:36;;;;;;;0.10;0.10;;;;;;;;;;4896891;29;20029;-79
2023/05/14 05:33:01;;;;;;;0.10;0.10;;;;;;;;;;4884214;29;20025;-78
2023/05/14 05:35:27;;;;;;;0.10;0.10;;;;;;;;;;4898678;29;20133;-80
2023/05/14 05:37:52;;;;;;;0.10;0.10;;;;;;;;;;4891386;29;20025;-80
2023/05/14 05:40:17;;;;;;;0.10;0.10;;;;;;;;;;4884580;29;20459;-80
2023/05/14 05:42:43;;;;;;;0.10;0.10;;;;;;;;;;4872985;29;20033;-80
2023/05/14 05:45:08;;;;;;;0.10;0.10;;;;;;;;;;4893040;29;20093;-79
2023/05/14 05:47:34;;;;;;;0.10;0.10;;;;;;;;;;4908217;29;20084;-80
2023/05/14 05:49:59;;;;;;;0.20;0.20;;;;;;;;;;4889309;29;20047;-80
2023/05/14 05:52:25;;;;;;;0.20;0.17;;;;;;;;;;4902187;29;20029;-80
2023/05/14 05:54:50;;;;;;;0.10;0.10;;;;;;;;;;4899179;29;20056;-80
2023/05/14 05:57:15;;;;;;;0.10;0.10;;;;;;;;;;4902155;29;20037;-79
2023/05/14 05:59:41;;;;;;;0.20;0.20;;;;;;;;;;4902651;29;20433;-80
2023/05/14 06:02:06;;;;;;;0.10;0.10;;;;;;;;;;4900961;29;20029;-79
2023/05/14 06:04:34;;;;;;;0.13;0.13;;;;;;;;;;4893687;29;20033;-81
2023/05/14 06:07:00;;;;;;;0.10;0.10;;;;;;;;;;4864267;29;20037;-79
2023/05/14 06:09:25;;;;;;;0.10;0.10;;;;;;;;;;4902119;29;20040;-80
2023/05/14 06:11:51;;;;;;;0.10;0.10;;;;;;;;;;4899153;29;20029;-80
2023/05/14 06:14:16;;;;;;;0.20;0.20;;;;;;;;;;4884717;29;20035;-81
2023/05/14 06:16:41;;;;;;;0.20;0.20;;;;;;;;;;4892909;29;20036;-81
2023/05/14 06:19:07;;;;;;;0.20;0.20;;;;;;;;;;4902440;29;20029;-81
2023/05/14 06:21:32;;;;;;;0.10;0.10;;;;;;;;;;4899908;29;20032;-80
2023/05/14 06:23:58;;;;;;;0.10;0.10;;;;;;;;;;4899534;29;20450;-80
2023/05/14 06:26:23;;;;;;;0.10;0.10;;;;;;;;;;4877548;29;20119;-80
2023/05/14 06:28:48;;;;;;;0.20;0.20;;;;;;;;;;4905276;29;20115;-80
2023/05/14 06:31:14;;;;;;;0.10;0.10;;;;;;;;;;4897520;29;20151;-80
2023/05/14 06:33:39;;;;;;;0.10;0.10;;;;;;;;;;4891409;29;20572;-80
2023/05/14 06:36:05;;;;;;;0.13;0.13;;;;;;;;;;4888822;29;20498;-80
2023/05/14 06:38:31;;;;;;;0.10;0.10;;;;;;;;;;4904600;29;20111;-80
2023/05/14 06:40:56;;;;;;;0.25;0.25;;;;;;;;;;4898704;29;20064;-79
2023/05/14 06:43:22;;;;;;;0.10;0.10;;;;;;;;;;4886678;29;20133;-81
2023/05/14 06:45:48;;;;;;;0.10;0.10;;;;;;;;;;4892473;29;20052;-80
2023/05/14 06:48:14;;;;;;;0.10;0.10;;;;;;;;;;4903128;29;20093;-80
2023/05/14 06:50:39;;;;;;;0.10;0.10;;;;;;;;;;4896955;29;20107;-80
2023/05/14 06:53:04;;;;;;;0.10;0.10;;;;;;;;;;4905097;29;20020;-80
2023/05/14 06:55:30;;;;;;;0.10;0.10;;;;;;;;;;4892340;29;20029;-80
2023/05/14 06:57:55;;;;;;;0.10;0.10;;;;;;;;;;4896009;29;20085;-80
2023/05/14 07:00:21;;;;;;;0.20;0.20;;;;;;;;;;4892382;29;20547;-80
2023/05/14 07:02:46;;;;;;;0.20;0.20;;;;;;;;;;4900655;29;20338;-80
2023/05/14 07:05:12;;;;;;;0.10;0.10;;;;;;;;;;4894729;29;20035;-80
2023/05/14 07:07:37;;;;;;;0.20;0.20;;;;;;;;;;4893291;29;20045;-79
2023/05/14 07:10:03;;;;;;;0.10;0.10;;;;;;;;;;4882183;29;20057;-80
2023/05/14 07:12:28;;;;;;;0.10;0.10;;;;;;;;;;4891295;29;20080;-80
2023/05/14 07:14:55;;;;;;;0.15;0.15;;;;;;;;;;4888083;29;20033;-80
2023/05/14 07:17:21;;;;;;;0.10;0.10;;;;;;;;;;4896808;29;20031;-80
2023/05/14 07:19:46;;;;;;;0.10;0.10;;;;;;;;;;4899685;29;20041;-79
2023/05/14 07:22:11;;;;;;;0.10;0.10;;;;;;;;;;4905592;29;20017;-80
2023/05/14 07:24:37;;;;;;;0.10;0.10;;;;;;;;;;4889160;29;20025;-80
2023/05/14 07:27:02;;;;;;;0.10;0.10;;;;;;;;;;4894907;29;20025;-79
2023/05/14 07:29:29;;;;;;;0.10;0.10;;;;;;;;;;4894019;29;20115;-80
2023/05/14 07:31:54;;;;;;;0.20;0.20;;;;;;;;;;4869893;29;20041;-80
2023/05/14 07:34:19;;;;;;;0.10;0.10;;;;;;;;;;4895839;29;20031;-80
2023/05/14 07:36:45;;;;;;;0.10;0.10;;;;;;;;;;4891782;29;20108;-81
2023/05/14 07:39:11;;;;;;;0.10;0.10;;;;;;;;;;4895653;29;20028;-79
2023/05/14 07:41:36;;;;;;;0.20;0.20;;;;;;;;;;4888999;29;20032;-80
2023/05/14 07:44:01;;;;;;;0.10;0.10;;;;;;;;;;4883771;29;20029;-80
2023/05/14 07:46:26;;;;;;;0.10;0.10;;;;;;;;;;4886594;29;20032;-81
2023/05/14 07:48:52;;;;;;;0.30;0.30;;;;;;;;;;4885891;29;20025;-80
2023/05/14 07:51:17;;;;;;;0.20;0.20;;;;;;;;;;4870905;29;20078;-80
2023/05/14 07:53:42;;;;;;;0.20;0.20;;;;;;;;;;4891225;29;20560;-79
2023/05/14 07:56:08;;;;;;;0.28;0.15;;;;;;;;;;4876497;29;20032;-80
2023/05/14 07:58:34;;;;;;;0.60;0.60;;;;;;;;;;4900508;29;20033;-79
2023/05/14 08:01:00;;;;;;;0.30;0.30;;;;;;;;;;4891294;29;20044;-80
2023/05/14 08:03:25;;;;;;;0.10;0.10;;;;;;;;;;4881459;29;20017;-80
2023/05/14 08:05:51;;;;;;;0.10;0.10;;;;;;;;;;4884726;29;20489;-79
2023/05/14 08:08:16;;;;;;;0.10;0.10;;;;;;;;;;4894917;29;20036;-80
2023/05/14 08:10:42;;;;;;;0.40;0.40;;;;;;;;;;4868052;29;20031;-80
2023/05/14 08:13:07;;;;;;;0.10;0.10;;;;;;;;;;4896805;29;20409;-81
2023/05/14 08:15:32;;;;;;;1.08;0.30;;;;;;;;;;4862641;29;20071;-81
2023/05/14 08:18:02;;;;;;;0.17;0.17;;;;;;;;;;4879269;29;20115;-81
2023/05/14 08:20:28;;;;;;;0.10;0.10;;;;;;;;;;4889360;29;20064;-81
2023/05/14 08:22:55;;;;;;;0.10;0.10;;;;;;;;;;4899742;29;20029;-81
2023/05/14 08:25:21;;;;;;;0.20;0.20;;;;;;;;;;4884450;29;20032;-81
2023/05/14 08:27:46;;;;;;;0.10;0.10;;;;;;;;;;4892233;29;20742;-81
2023/05/14 08:30:12;;;;;;;0.08;0.08;;;;;;;;;;4898830;29;20400;-82
2023/05/14 08:32:38;;;;;;;0.10;0.10;;;;;;;;;;4895570;29;20384;-81
2023/05/14 08:35:03;;;;;;;0.13;0.13;;;;;;;;;;4887497;29;20495;-77
2023/05/14 08:37:29;;;;;;;0.00;0.00;;;;;;;;;;4891767;29;20024;-78
2023/05/14 08:39:55;;;;;;;0.00;0.00;;;;;;;;;;4881252;29;20056;-82
2023/05/14 08:42:22;;;;;;;0.10;0.10;;;;;;;;;;4899361;29;20020;-81
2023/05/14 08:44:52;;;;;;;0.20;0.20;;;;;;;;;;4886841;29;20093;-81
2023/05/14 08:47:23;;;;;;;0.30;0.30;;;;;;;;;;4890908;29;20407;-82
2023/05/14 08:49:59;;;;;;;0.03;0.03;;;;;;;;;;4899054;29;20488;-81
2023/05/14 08:52:24;;;;;;;0.25;0.25;;;;;;;;;;4888429;29;20055;-81
2023/05/14 08:54:52;;;;;;;0.22;0.22;;;;;;;;;;4885003;29;20373;-80
2023/05/14 08:57:19;;;;;;;0.10;0.10;;;;;;;;;;4890257;29;20024;-80
2023/05/14 08:59:45;;;;;;;0.20;0.20;;;;;;;;;;4899558;29;20061;-80
2023/05/14 09:02:13;;;;;;;0.20;0.20;;;;;;;;;;4891445;29;20084;-80
2023/05/14 09:04:40;;;;;;;0.45;0.45;;;;;;;;;;4873656;29;20943;-79
2023/05/14 09:07:06;;;;;;;0.15;0.15;;;;;;;;;;4889966;29;20029;-80
2023/05/14 09:09:31;;;;;;;0.10;0.10;;;;;;;;;;4900049;29;20112;-82
2023/05/14 09:11:57;;;;;;;0.20;0.20;;;;;;;;;;4894192;29;20060;-79
2023/05/14 09:14:23;;;;;;;0.10;0.10;;;;;;;;;;4889029;29;20021;-80
2023/05/14 09:16:49;;;;;;;0.10;0.10;;;;;;;;;;4887188;29;20079;-79
2023/05/14 09:19:17;;;;;;;0.10;0.10;;;;;;;;;;4892909;29;20111;-80
2023/05/14 09:21:44;;;;;;;0.20;0.20;;;;;;;;;;4899521;29;20594;-80
2023/05/14 09:24:28;;;;;;;0.05;0.05;;;;;;;;;;4866358;29;20036;-84
2023/05/14 09:26:56;;;;;;;0.00;0.00;;;;;;;;;;4885971;29;20044;-82
2023/05/14 09:29:27;;;;;;;0.10;0.10;;;;;;;;;;4897117;29;20488;-80
2023/05/14 09:31:53;;;;;;;0.03;0.03;;;;;;;;;;4883885;29;20037;-80
2023/05/14 09:34:29;;;;;;;0.10;0.10;;;;;;;;;;4880181;29;20021;-82
2023/05/14 09:36:56;;;;;;;0.05;0.05;;;;;;;;;;4880151;29;20081;-80
2023/05/14 09:39:23;;;;;;;0.10;0.10;;;;;;;;;;4896687;29;20028;-84
2023/05/14 09:41:50;;;;;;;0.43;0.43;;;;;;;;;;4890995;29;20029;-82
2023/05/14 09:44:16;;;;;;;0.15;0.15;;;;;;;;;;4888400;29;20025;-80
2023/05/14 09:46:41;;;;;;;0.60;0.60;;;;;;;;;;4891818;29;20043;-82
2023/05/14 09:49:06;;;;;;;0.10;0.10;;;;;;;;;;4895896;29;20104;-81
2023/05/14 09:51:32;;;;;;;0.15;0.15;;;;;;;;;;4902539;29;20543;-81
2023/05/14 09:53:57;;;;;;;0.38;0.38;;;;;;;;;;4891288;29;20039;-82
2023/05/14 09:56:23;;;;;;;0.28;0.28;;;;;;;;;;4884824;29;20048;-84
2023/05/14 09:58:48;;;;;;;0.03;0.03;;;;;;;;;;4889406;29;20033;-82
2023/05/14 10:01:15;;;;;;;0.00;0.00;;;;;;;;;;4900889;29;20017;-83
2023/05/14 10:03:41;;;;;;;0.20;0.20;;;;;;;;;;4889628;29;20050;-83
2023/05/14 10:06:07;;;;;;;0.00;0.00;;;;;;;;;;4884176;29;20033;-81
2023/05/14 10:08:34;;;;;;;0.10;0.10;;;;;;;;;;4874176;29;20493;-82
2023/05/14 10:11:04;;;;;;;0.10;0.10;;;;;;;;;;4899906;29;20064;-82
2023/05/14 10:13:36;;;;;;;0.00;0.00;;;;;;;;;;4889405;29;20520;-83
2023/05/14 10:16:17;;;;;;;;;;;;;;;;;;4885939;29;20033;-83
2023/05/14 10:18:47;;;;;;;1.05;0.30;;;;;;;;;;4885589;29;20010;-82
2023/05/14 10:21:13;;;;;;;0.00;0.00;;;;;;;;;;4892717;29;20104;-82
2023/05/14 10:23:40;;;;;;;0.30;0.30;;;;;;;;;;4880176;29;20036;-82
2023/05/14 10:26:06;;;;;;;0.20;0.20;;;;;;;;;;4862052;29;20037;-80
2023/05/14 10:28:32;;;;;;;0.20;0.20;;;;;;;;;;4896733;29;20052;-82
2023/05/14 10:31:01;;;;;;;0.03;0.03;;;;;;;;;;4897596;29;20084;-82
2023/05/14 10:33:26;;;;;;;0.43;0.43;;;;;;;;;;4882845;29;20033;-81
2023/05/14 10:36:00;;;;;;;0.03;0.03;;;;;;;;;;4880726;29;20481;-81
2023/05/14 10:38:32;;;;;;;0.00;0.00;;;;;;;;;;4892996;29;20020;-81
2023/05/14 10:41:00;;;;;;;0.13;0.13;;;;;;;;;;4891604;29;20044;-81
2023/05/14 10:43:28;;;;;;;0.10;0.10;;;;;;;;;;4900947;29;20045;-83
2023/05/14 10:45:54;;;;;;;0.40;0.40;;;;;;;;;;4900557;29;20085;-81
2023/05/14 10:48:20;;;;;;;0.10;0.10;;;;;;;;;;4889627;29;20054;-80
2023/05/14 10:50:47;;;;;;;0.28;0.28;;;;;;;;;;4905679;23;20036;-79
2023/05/14 10:53:12;;;;;;;0.38;0.38;;;;;;;;;;4951368;29;20127;-81
2023/05/14 10:55:38;;;;;;;0.55;0.55;;;;;;;;;;4943888;29;20077;-79
2023/05/14 10:58:03;;;;;;;0.60;0.60;;;;;;;;;;4952201;29;20482;-81
2023/05/14 11:00:32;;;;;;;0.20;0.20;;;;;;;;;;4943330;29;20054;-80
2023/05/14 11:02:59;;;;;;;0.35;0.35;;;;;;;;;;4954149;29;20041;-80
2023/05/14 11:05:26;;;;;;;0.15;0.15;;;;;;;;;;4941882;29;20541;-81
2023/05/14 11:07:55;;;;;;;0.10;0.10;;;;;;;;;;4940058;29;20058;-80
2023/05/14 11:10:21;;;;;;;0.05;0.05;;;;;;;;;;4933254;29;20082;-80
2023/05/14 11:12:48;;;;;;;0.10;0.10;;;;;;;;;;4941321;29;20023;-80
2023/05/14 11:15:16;;;;;;;0.10;0.10;;;;;;;;;;4940088;29;20038;-81
2023/05/14 11:17:43;;;;;;;1.35;0.52;;;;;;;;;;4939705;29;20083;-80
2023/05/14 11:20:09;;;;;;;0.20;0.20;;;;;;;;;;4950697;29;20023;-81
2023/05/14 11:22:36;;;;;;;0.30;0.25;;;;;;;;;;4943477;29;20398;-80
2023/05/14 11:25:02;;;;;;;0.10;0.05;;;;;;;;;;4946440;29;20036;-81
2023/05/14 11:27:30;;;;;;;0.80;0.80;;;;;;;;;;4940155;29;20023;-81
2023/05/14 11:29:56;;;;;;;0.10;0.10;;;;;;;;;;4944888;29;20032;-81
2023/05/14 11:32:22;;;;;;;0.00;0.00;;;;;;;;;;4931602;29;20474;-81
2023/05/14 11:34:47;;;;;;;0.25;0.17;;;;;;;;;;4929063;29;20035;-81
2023/05/14 11:37:14;;;;;;;0.52;0.20;;;;;;;;;;4937968;29;20030;-81
2023/05/14 11:39:53;;;;;;;0.00;0.00;;;;;;;;;;4949507;29;20098;-80
2023/05/14 11:42:20;;;;;;;0.45;0.45;;;;;;;;;;4938788;29;20024;-81
2023/05/14 11:44:47;;;;;;;0.22;0.22;;;;;;;;;;4936973;29;20044;-82
2023/05/14 11:47:14;;;;;;;0.00;0.00;;;;;;;;;;4937400;29;20106;-80
2023/05/14 11:49:39;;;;;;;0.03;0.03;;;;;;;;;;4941215;29;20522;-81
2023/05/14 11:52:07;;;;;;;0.10;0.10;;;;;;;;;;4949340;29;20037;-81
2023/05/14 11:54:33;;;;;;;0.00;0.00;;;;;;;;;;4945304;29;20019;-80
2023/05/14 11:57:06;;;;;;;0.00;0.00;;;;;;;;;;4937239;29;20487;-81
2023/05/14 11:59:31;;;;;;;0.10;0.10;;;;;;;;;;4940174;29;20023;-81
2023/05/14 12:01:57;;;;;;;0.10;0.10;;;;;;;;;;4942211;29;20034;-81
2023/05/14 12:04:23;;;;;;;0.10;0.10;;;;;;;;;;4953161;29;20066;-81
2023/05/14 12:06:49;;;;;;;0.10;0.10;;;;;;;;;;4942692;29;20028;-81
2023/05/14 12:09:16;;;;;;;0.03;0.03;;;;;;;;;;4945792;29;20098;-80
2023/05/14 12:11:43;;;;;;;0.00;0.00;;;;;;;;;;4943825;29;20028;-81
2023/05/14 12:14:17;;;;;;;0.00;0.00;;;;;;;;;;4957126;28;20025;-81
2023/05/14 12:16:43;;;;;;;0.10;0.10;;;;;;;;;;4940295;29;20031;-81
2023/05/14 12:19:12;;;;;;;0.03;0.03;;;;;;;;;;4940875;29;20506;-81
2023/05/14 12:21:38;;;;;;;0.10;0.10;;;;;;;;;;4943857;28;20479;-80
2023/05/14 12:24:04;;;;;;;0.03;0.03;;;;;;;;;;4953276;29;20023;-81
2023/05/14 12:26:33;;;;;;;0.10;0.10;;;;;;;;;;4943814;29;20379;-83
2023/05/14 12:29:00;;;;;;;0.10;0.10;;;;;;;;;;4951133;29;20102;-80
2023/05/14 12:31:35;;;;;;;0.57;0.47;;;;;;;;;;4933594;29;20062;-79
2023/05/14 12:34:01;;;;;;;0.10;0.10;;;;;;;;;;4950972;29;20019;-79
2023/05/14 12:36:27;;;;;;;0.10;0.10;;;;;;;;;;4938188;29;20070;-79
2023/05/14 12:39:00;;;;;;;0.00;0.00;;;;;;;;;;4953349;29;20107;-80
2023/05/14 12:41:26;;;;;;;0.10;0.10;;;;;;;;;;4940452;29;20038;-80
2023/05/14 12:43:52;;;;;;;0.00;0.00;;;;;;;;;;4938950;29;20034;-79
2023/05/14 12:46:17;;;;;;;0.05;0.05;;;;;;;;;;4943018;29;20036;-79
2023/05/14 12:48:43;;;;;;;0.10;0.10;;;;;;;;;;4945966;29;20020;-79
2023/05/14 12:51:08;;;;;;;0.10;0.10;;;;;;;;;;4936532;29;20027;-81
2023/05/14 12:53:34;;;;;;;0.00;0.00;;;;;;;;;;4956478;29;20024;-79
2023/05/14 12:55:59;;;;;;;0.10;0.10;;;;;;;;;;4951810;29;20035;-79
2023/05/14 12:58:24;;;;;;;0.10;0.10;;;;;;;;;;4952531;28;20579;-79
2023/05/14 13:00:50;;;;;;;0.10;0.10;;;;;;;;;;4949027;29;20023;-79
2023/05/14 13:03:15;;;;;;;0.10;0.10;;;;;;;;;;4954907;29;20028;-79
2023/05/14 13:05:41;;;;;;;0.22;0.22;;;;;;;;;;4952438;28;20062;-79
2023/05/14 13:08:06;;;;;;;0.10;0.10;;;;;;;;;;4944266;29;20047;-84
2023/05/14 13:10:31;;;;;;;0.10;0.10;;;;;;;;;;4933478;29;20085;-78
2023/05/14 13:12:57;;;;;;;0.47;0.47;;;;;;;;;;4933451;28;20055;-78
2023/05/14 13:15:22;;;;;;;0.05;0.05;;;;;;;;;;4932648;29;20034;-79
2023/05/14 13:17:48;;;;;;;0.13;0.13;;;;;;;;;;4939121;29;20036;-79
2023/05/14 13:20:13;;;;;;;0.00;0.00;;;;;;;;;;4947141;29;20135;-80
2023/05/14 13:22:39;;;;;;;0.10;0.10;;;;;;;;;;4944723;29;20027;-78
2023/05/14 13:25:06;;;;;;;0.10;0.10;;;;;;;;;;4938802;29;20031;-80
2023/05/14 13:27:32;;;;;;;0.00;0.00;;;;;;;;;;4946425;29;20095;-78
2023/05/14 13:29:57;;;;;;;0.05;0.05;;;;;;;;;;4937789;28;20475;-82
2023/05/14 13:32:24;;;;;;;0.10;0.10;;;;;;;;;;4943893;29;20047;-79
2023/05/14 13:34:49;;;;;;;0.20;0.20;;;;;;;;;;4942568;29;20027;-78
2023/05/14 13:37:15;;;;;;;0.05;0.05;;;;;;;;;;4944065;29;20175;-76
2023/05/14 13:39:40;;;;;;;0.38;0.30;;;;;;;;;;4936150;29;20029;-77
2023/05/14 13:42:05;;;;;;;0.15;0.15;;;;;;;;;;4939068;29;20036;-78
2023/05/14 13:44:31;;;;;;;0.13;0.13;;;;;;;;;;4934673;29;20042;-78
2023/05/14 13:46:56;;;;;;;0.00;0.00;;;;;;;;;;4939925;29;20095;-79
2023/05/14 13:49:21;;;;;;;0.73;0.73;;;;;;;;;;4941429;29;20459;-78
2023/05/14 13:51:47;;;;;;;0.10;0.10;;;;;;;;;;4938331;28;20566;-79
2023/05/14 13:54:12;;;;;;;0.08;0.08;;;;;;;;;;4938253;29;20023;-78
2023/05/14 13:56:37;;;;;;;0.30;0.30;;;;;;;;;;4940332;29;20020;-78
2023/05/14 13:59:03;;;;;;;0.10;0.10;;;;;;;;;;4948269;29;20082;-78
2023/05/14 14:01:29;;;;;;;0.08;0.08;;;;;;;;;;4936859;29;20051;-79
2023/05/14 14:03:55;;;;;;;1.55;0.38;;;;;;;;;;4937669;29;20406;-78
2023/05/14 14:06:20;;;;;;;0.00;0.00;;;;;;;;;;4950911;29;20042;-83
2023/05/14 14:08:46;;;;;;;0.25;0.25;;;;;;;;;;4941626;29;20036;-78
2023/05/14 14:11:12;;;;;;;0.10;0.10;;;;;;;;;;4937694;29;20566;-79
2023/05/14 14:13:38;;;;;;;0.30;0.30;;;;;;;;;;4932909;29;20840;-78
2023/05/14 14:16:05;;;;;;;0.08;0.08;;;;;;;;;;4944401;29;20031;-78
2023/05/14 14:18:30;;;;;;;0.20;0.20;;;;;;;;;;4950969;29;20031;-79
2023/05/14 14:20:56;;;;;;;0.10;0.10;;;;;;;;;;4950143;29;20038;-78
2023/05/14 14:23:21;;;;;;;0.10;0.10;;;;;;;;;;4946826;29;20280;-79
2023/05/14 14:25:47;;;;;;;0.17;0.17;;;;;;;;;;4943701;29;20039;-78
2023/05/14 14:28:12;;;;;;;0.52;0.52;;;;;;;;;;4945562;29;20043;-78
2023/05/14 14:30:38;;;;;;;0.08;0.08;;;;;;;;;;4941272;29;20036;-78
2023/05/14 14:33:03;;;;;;;0.10;0.10;;;;;;;;;;4937536;29;20119;-79
2023/05/14 14:35:29;;;;;;;0.10;0.10;;;;;;;;;;4940194;29;20047;-77
2023/05/14 14:37:55;;;;;;;0.05;0.05;;;;;;;;;;4939671;29;20039;-78